createdAt,value
2022-10-18T00:02:38.372Z,101691.69
2022-10-18T00:05:40.726Z,101694.94
2022-10-18T00:08:42.789Z,101694.16
2022-10-18T00:11:45.226Z,101696.84
2022-10-18T00:14:50.839Z,101696.84
2022-10-18T00:17:53.297Z,101683.06
2022-10-18T00:20:59.116Z,101679.81
2022-10-18T00:24:01.493Z,101676.59
2022-10-18T00:27:03.574Z,101681.72
2022-10-18T00:30:06.703Z,101672.78
2022-10-18T00:33:08.755Z,101676.59
2022-10-18T00:36:12.049Z,101672.53
2022-10-18T00:39:19.325Z,101665.53
2022-10-18T00:42:24.054Z,101670.91
2022-10-18T00:45:26.468Z,101672.25
2022-10-18T00:48:28.807Z,101670.91
2022-10-18T00:51:36.611Z,101665.50
2022-10-18T00:54:41.655Z,101669.56
2022-10-18T00:57:45.014Z,101666.06
2022-10-18T01:00:47.436Z,101657.69
2022-10-18T01:03:51.210Z,101662.28
2022-10-18T01:07:09.508Z,101655.50
2022-10-18T01:10:23.896Z,101661.75
2022-10-18T01:13:32.108Z,101653.91
2022-10-18T01:16:52.425Z,101652.25
2022-10-18T01:20:32.258Z,101648.50
2022-10-18T01:23:43.307Z,101643.91
2022-10-18T01:26:52.839Z,101639.84
2022-10-18T01:30:23.388Z,101628.53
2022-10-18T01:33:50.936Z,101628.50
2022-10-18T01:36:56.518Z,101625.00
2022-10-18T01:40:03.579Z,101625.53
2022-10-18T01:43:08.308Z,101624.72
2022-10-18T01:46:14.519Z,101626.37
2022-10-18T01:49:16.729Z,101614.50
2022-10-18T01:52:19.078Z,101609.91
2022-10-18T01:55:27.995Z,101602.06
2022-10-18T01:58:44.830Z,101607.47
2022-10-18T02:02:16.194Z,101605.28
2022-10-18T02:05:50.629Z,101615.28
2022-10-18T02:09:02.804Z,101612.28
2022-10-18T02:12:10.480Z,101606.91
2022-10-18T02:15:16.258Z,101596.37
2022-10-18T02:18:24.384Z,101599.31
2022-10-18T02:21:29.521Z,101596.06
2022-10-18T02:24:36.720Z,101599.31
2022-10-18T02:27:39.094Z,101596.06
2022-10-18T02:30:48.647Z,101599.84
2022-10-18T02:33:58.040Z,101605.81
2022-10-18T02:37:01.855Z,101611.72
2022-10-18T02:40:06.064Z,101602.56
2022-10-18T02:43:08.429Z,101602.81
2022-10-18T02:46:10.746Z,101609.28
2022-10-18T02:49:13.163Z,101604.44
2022-10-18T02:52:15.279Z,101602.28
2022-10-18T02:55:18.168Z,101596.88
2022-10-18T02:58:20.267Z,101604.97
2022-10-18T03:01:22.700Z,101597.66
2022-10-18T03:04:24.819Z,101593.91
2022-10-18T03:07:27.278Z,101596.06
2022-10-18T03:10:29.353Z,101606.31
2022-10-18T03:13:32.195Z,101609.28
2022-10-18T03:16:34.282Z,101600.91
2022-10-18T03:19:38.522Z,101609.00
2022-10-18T03:22:40.655Z,101609.00
2022-10-18T03:25:45.691Z,101618.19
2022-10-18T03:28:49.150Z,101617.34
2022-10-18T03:31:52.786Z,101614.69
2022-10-18T03:34:55.008Z,101616.81
2022-10-18T03:37:57.533Z,101605.22
2022-10-18T03:40:59.654Z,101613.03
2022-10-18T03:44:02.199Z,101620.03
2022-10-18T03:47:04.309Z,101611.41
2022-10-18T03:50:07.098Z,101613.28
2022-10-18T03:53:09.231Z,101614.03
2022-10-18T03:56:11.631Z,101623.75
2022-10-18T03:59:13.766Z,101627.78
2022-10-18T04:02:16.116Z,101628.06
2022-10-18T04:05:18.446Z,101622.91
2022-10-18T04:08:20.820Z,101622.09
2022-10-18T04:11:23.172Z,101620.22
2022-10-18T04:14:25.318Z,101613.97
2022-10-18T04:17:27.668Z,101616.66
2022-10-18T04:20:29.824Z,101611.44
2022-10-18T04:23:35.049Z,101616.03
2022-10-18T04:26:40.050Z,101613.59
2022-10-18T04:29:42.431Z,101605.81
2022-10-18T04:32:44.491Z,101610.63
2022-10-18T04:35:47.612Z,101610.34
2022-10-18T04:38:49.706Z,101609.28
2022-10-18T04:41:52.115Z,101613.84
2022-10-18T04:44:54.184Z,101605.25
2022-10-18T04:47:56.614Z,101598.22
2022-10-18T04:50:58.731Z,101601.25
2022-10-18T04:54:01.077Z,101592.59
2022-10-18T04:57:03.571Z,101596.37
2022-10-18T05:00:06.559Z,101588.25
2022-10-18T05:03:09.144Z,101592.06
2022-10-18T05:06:11.543Z,101587.47
2022-10-18T05:09:13.826Z,101586.69
2022-10-18T05:12:17.167Z,101577.53
2022-10-18T05:15:19.266Z,101585.63
2022-10-18T05:18:21.970Z,101587.28
2022-10-18T05:21:24.054Z,101590.81
2022-10-18T05:24:27.766Z,101587.06
2022-10-18T05:27:29.963Z,101587.84
2022-10-18T05:30:32.410Z,101587.84
2022-10-18T05:33:34.755Z,101591.09
2022-10-18T05:36:37.129Z,101590.00
2022-10-18T05:39:39.242Z,101591.66
2022-10-18T05:42:41.643Z,101594.62
2022-10-18T05:45:51.061Z,101595.44
2022-10-18T05:48:53.413Z,101586.25
2022-10-18T05:51:55.540Z,101586.81
2022-10-18T05:54:57.981Z,101596.00
2022-10-18T05:58:00.101Z,101588.97
2022-10-18T06:01:03.155Z,101590.88
2022-10-18T06:04:05.755Z,101591.97
2022-10-18T06:07:09.444Z,101593.28
2022-10-18T06:10:12.697Z,101593.53
2022-10-18T06:13:14.874Z,101597.06
2022-10-18T06:16:20.169Z,101598.69
2022-10-18T06:19:26.008Z,101603.50
2022-10-18T06:22:28.474Z,101599.22
2022-10-18T06:25:30.654Z,101602.69
2022-10-18T06:28:35.412Z,101609.47
2022-10-18T06:31:38.209Z,101622.69
2022-10-18T06:34:40.565Z,101611.44
2022-10-18T06:40:50.074Z,101610.91
2022-10-18T06:43:56.713Z,101612.81
2022-10-18T06:47:01.219Z,101610.97
2022-10-18T06:50:04.034Z,101611.25
2022-10-18T06:53:08.557Z,101610.97
2022-10-18T06:56:13.117Z,101616.09
2022-10-18T06:59:15.890Z,101615.28
2022-10-18T07:02:18.037Z,101620.41
2022-10-18T07:05:20.788Z,101629.03
2022-10-18T07:08:23.071Z,101633.84
2022-10-18T07:11:28.690Z,101630.34
2022-10-18T07:14:36.082Z,101625.75
2022-10-18T07:17:39.640Z,101613.28
2022-10-18T07:20:41.734Z,101614.06
2022-10-18T07:23:48.774Z,101616.69
2022-10-18T07:26:53.126Z,101617.50
2022-10-18T07:29:58.246Z,101609.34
2022-10-18T07:33:02.616Z,101599.00
2022-10-18T07:36:10.075Z,101598.91
2022-10-18T07:39:12.633Z,101602.09
2022-10-18T07:42:15.066Z,101594.22
2022-10-18T07:45:17.404Z,101596.84
2022-10-18T07:48:24.464Z,101595.41
2022-10-18T07:51:35.492Z,101600.25
2022-10-18T07:54:38.625Z,101595.03
2022-10-18T07:57:40.837Z,101600.38
2022-10-18T08:00:43.481Z,101592.44
2022-10-18T08:03:48.745Z,101593.16
2022-10-18T08:06:54.122Z,101583.03
2022-10-18T08:09:57.588Z,101584.03
2022-10-18T08:12:59.688Z,101580.38
2022-10-18T08:16:07.806Z,101583.16
2022-10-18T08:19:09.879Z,101575.72
2022-10-18T08:22:12.204Z,101577.34
2022-10-18T08:25:14.387Z,101570.59
2022-10-18T08:28:17.386Z,101569.66
2022-10-18T08:31:20.117Z,101561.34
2022-10-18T08:34:22.626Z,101561.22
2022-10-18T08:37:24.742Z,101557.66
2022-10-18T08:40:27.878Z,101548.87
2022-10-18T08:43:29.950Z,101546.34
2022-10-18T08:46:34.863Z,101532.22
2022-10-18T08:49:36.828Z,101549.97
2022-10-18T08:53:05.357Z,101536.75
2022-10-18T08:56:14.606Z,101534.34
2022-10-18T08:59:16.993Z,101532.44
2022-10-18T09:02:36.230Z,101521.87
2022-10-18T09:06:04.054Z,101516.41
2022-10-18T09:09:39.105Z,101520.09
2022-10-18T09:13:26.584Z,101512.84
2022-10-18T09:16:37.606Z,101514.16
2022-10-18T09:20:01.257Z,101505.16
2022-10-18T09:23:22.962Z,101504.34
2022-10-18T09:26:26.010Z,101498.41
2022-10-18T09:29:46.111Z,101497.75
2022-10-18T09:33:05.040Z,101497.59
2022-10-18T09:36:17.717Z,101492.94
2022-10-18T09:39:25.875Z,101492.47
2022-10-18T09:42:41.402Z,101489.56
2022-10-18T09:45:45.698Z,101486.03
2022-10-18T09:49:03.640Z,101476.19
2022-10-18T09:52:16.046Z,101477.78
2022-10-18T09:55:30.806Z,101474.69
2022-10-18T09:58:46.426Z,101473.09
2022-10-18T10:01:48.534Z,101468.38
2022-10-18T10:04:52.137Z,101465.94
2022-10-18T10:07:59.850Z,101460.56
2022-10-18T10:11:02.420Z,101456.19
2022-10-18T10:14:09.048Z,101446.34
2022-10-18T10:17:29.839Z,101448.38
2022-10-18T10:20:43.937Z,101436.13
2022-10-18T10:23:59.292Z,101427.25
2022-10-18T10:27:06.957Z,101434.25
2022-10-18T10:30:26.665Z,101422.66
2022-10-18T10:33:40.399Z,101423.13
2022-10-18T10:36:50.772Z,101417.31
2022-10-18T10:40:18.351Z,101415.03
2022-10-18T10:43:37.466Z,101409.87
2022-10-18T10:46:40.014Z,101395.31
2022-10-18T10:49:51.657Z,101398.12
2022-10-18T10:52:54.456Z,101395.09
2022-10-18T10:55:58.713Z,101385.41
2022-10-18T10:59:09.041Z,101392.19
2022-10-18T11:02:14.322Z,101385.28
2022-10-18T11:05:26.914Z,101379.47
2022-10-18T11:08:38.755Z,101371.94
2022-10-18T11:11:49.870Z,101362.13
2022-10-18T11:15:11.745Z,101362.13
2022-10-18T11:18:19.868Z,101355.31
2022-10-18T11:21:27.615Z,101355.97
2022-10-18T11:24:30.684Z,101350.03
2022-10-18T11:27:41.027Z,101352.78
2022-10-18T11:30:56.489Z,101347.53
2022-10-18T11:34:23.919Z,101341.38
2022-10-18T11:37:38.378Z,101329.50
2022-10-18T11:40:56.397Z,101332.22
2022-10-18T11:44:03.700Z,101327.75
2022-10-18T11:47:38.540Z,101320.09
2022-10-18T11:50:59.994Z,101314.50
2022-10-18T11:54:45.271Z,101309.94
2022-10-18T11:57:54.486Z,101301.25
2022-10-18T12:01:06.403Z,101293.47
2022-10-18T12:04:23.769Z,101284.44
2022-10-18T12:07:32.804Z,101294.72
2022-10-18T12:10:52.556Z,101287.84
2022-10-18T12:14:07.255Z,101280.16
2022-10-18T12:17:45.117Z,101274.56
2022-10-18T12:20:53.013Z,101268.75
2022-10-18T12:23:59.970Z,101264.06
2022-10-18T12:27:02.656Z,101257.84
2022-10-18T12:30:23.669Z,101256.44
2022-10-18T12:33:30.230Z,101248.41
2022-10-18T12:36:55.205Z,101251.06
2022-10-18T12:40:13.401Z,101240.97
2022-10-18T12:43:34.126Z,101236.87
2022-10-18T12:46:56.020Z,101224.44
2022-10-18T12:50:01.474Z,101221.31
2022-10-18T12:53:17.102Z,101217.44
2022-10-18T12:56:28.196Z,101217.06
2022-10-18T12:59:30.165Z,101207.00
2022-10-18T13:02:33.320Z,101204.50
2022-10-18T13:05:56.235Z,101201.75
2022-10-18T13:09:26.551Z,101202.09
2022-10-18T13:12:28.530Z,101189.72
2022-10-18T13:15:59.625Z,101183.63
2022-10-18T13:19:14.050Z,101183.38
2022-10-18T13:22:50.812Z,101176.47
2022-10-18T13:26:14.968Z,101180.81
2022-10-18T13:29:46.723Z,101178.50
2022-10-18T13:33:27.639Z,101180.38
2022-10-18T13:36:32.820Z,101174.94
2022-10-18T13:39:35.628Z,101178.94
2022-10-18T13:42:37.971Z,101186.25
2022-10-18T13:45:45.435Z,101176.34
2022-10-18T13:48:53.371Z,101175.63
2022-10-18T13:52:16.873Z,101172.91
2022-10-18T13:55:44.519Z,101168.38
2022-10-18T13:59:14.521Z,101170.22
2022-10-18T14:02:51.822Z,101161.91
2022-10-18T14:06:20.120Z,101156.66
2022-10-18T14:09:40.222Z,101158.50
2022-10-18T14:12:54.566Z,101148.44
2022-10-18T14:16:04.290Z,101144.44
2022-10-18T14:19:36.747Z,101146.22
2022-10-18T14:23:02.889Z,101134.53
2022-10-18T14:26:14.704Z,101134.28
2022-10-18T14:29:19.592Z,101138.31
2022-10-18T14:32:26.658Z,101135.34
2022-10-18T14:35:33.317Z,101128.87
2022-10-18T14:38:47.163Z,101126.47
2022-10-18T14:41:52.326Z,101130.38
2022-10-18T14:44:56.497Z,101124.78
2022-10-18T14:48:16.253Z,101119.91
2022-10-18T14:51:18.708Z,101111.03
2022-10-18T14:54:29.134Z,101105.31
2022-10-18T14:57:36.844Z,101100.91
2022-10-18T15:00:40.429Z,101100.69
2022-10-18T15:03:45.146Z,101097.72
2022-10-18T15:06:48.467Z,101087.06
2022-10-18T15:09:51.534Z,101085.34
2022-10-18T15:13:09.207Z,101087.87
2022-10-18T15:16:17.580Z,101091.53
2022-10-18T15:19:35.910Z,101089.69
2022-10-18T15:22:38.263Z,101087.66
2022-10-18T15:25:40.371Z,101080.25
2022-10-18T15:28:51.271Z,101072.25
2022-10-18T15:31:53.366Z,101076.72
2022-10-18T15:35:07.340Z,101079.44
2022-10-18T15:38:24.622Z,101075.22
2022-10-18T15:41:48.837Z,101072.94
2022-10-18T15:44:51.399Z,101061.47
2022-10-18T15:48:21.174Z,101070.81
2022-10-18T15:51:48.005Z,101064.34
2022-10-18T15:54:50.357Z,101063.87
2022-10-18T15:57:52.470Z,101067.47
2022-10-18T16:00:59.017Z,101071.31
2022-10-18T16:04:07.077Z,101065.44
2022-10-18T16:07:11.327Z,101056.06
2022-10-18T16:10:14.449Z,101059.63
2022-10-18T16:13:17.574Z,101047.97
2022-10-18T16:16:23.215Z,101054.13
2022-10-18T16:19:25.285Z,101056.12
2022-10-18T16:22:27.694Z,101058.13
2022-10-18T16:25:29.747Z,101068.13
2022-10-18T16:28:32.131Z,101062.03
2022-10-18T16:31:34.636Z,101056.59
2022-10-18T16:34:36.987Z,101061.91
2022-10-18T16:37:39.911Z,101066.28
2022-10-18T16:40:42.273Z,101071.72
2022-10-18T16:43:46.991Z,101079.75
2022-10-18T16:46:52.395Z,101076.56
2022-10-18T16:49:56.157Z,101086.34
2022-10-18T16:52:58.486Z,101076.59
2022-10-18T16:56:02.366Z,101072.75
2022-10-18T16:59:04.741Z,101079.19
2022-10-18T17:02:09.219Z,101082.84
2022-10-18T17:05:11.656Z,101076.28
2022-10-18T17:08:18.964Z,101067.44
2022-10-18T17:11:23.429Z,101073.56
2022-10-18T17:14:25.533Z,101076.91
2022-10-18T17:17:27.982Z,101075.91
2022-10-18T17:20:30.074Z,101081.00
2022-10-18T17:23:34.057Z,101073.97
2022-10-18T17:26:36.141Z,101083.53
2022-10-18T17:29:38.748Z,101082.22
2022-10-18T17:32:44.543Z,101084.78
2022-10-18T17:35:48.410Z,101082.06
2022-10-18T17:38:54.379Z,101079.12
2022-10-18T17:41:57.642Z,101074.44
2022-10-18T17:44:59.797Z,101067.91
2022-10-18T17:48:02.205Z,101063.66
2022-10-18T17:51:12.282Z,101058.38
2022-10-18T17:54:14.753Z,101056.94
2022-10-18T17:57:17.028Z,101067.81
2022-10-18T18:00:19.423Z,101061.53
2022-10-18T18:03:22.036Z,101050.25
2022-10-18T18:06:33.996Z,101064.41
2022-10-18T18:09:36.420Z,101062.31
2022-10-18T18:12:38.663Z,101059.66
2022-10-18T18:15:41.099Z,101049.12
2022-10-18T18:18:44.140Z,101057.28
2022-10-18T18:21:47.191Z,101057.91
2022-10-18T18:24:49.296Z,101048.41
2022-10-18T18:27:51.649Z,101056.16
2022-10-18T18:30:53.715Z,101047.50
2022-10-18T18:33:57.859Z,101051.22
2022-10-18T18:36:59.975Z,101047.37
2022-10-18T18:40:02.307Z,101041.66
2022-10-18T18:43:18.932Z,101046.44
2022-10-18T18:46:26.873Z,101041.19
2022-10-18T18:49:29.020Z,101040.78
2022-10-18T18:52:31.697Z,101035.09
2022-10-18T18:55:34.504Z,101029.16
2022-10-18T18:58:38.552Z,101022.53
2022-10-18T19:01:41.721Z,101017.91
2022-10-18T19:04:44.106Z,101024.47
2022-10-18T19:07:46.161Z,101019.06
2022-10-18T19:10:49.486Z,101024.66
2022-10-18T19:13:51.681Z,101018.44
2022-10-18T19:16:57.487Z,101017.53
2022-10-18T19:20:01.084Z,101017.06
2022-10-18T19:23:03.474Z,101013.13
2022-10-18T19:26:26.503Z,101014.75
2022-10-18T19:29:31.309Z,101016.53
2022-10-18T19:32:33.405Z,101009.22
2022-10-18T19:35:35.737Z,101011.34
2022-10-18T19:38:37.812Z,101007.03
2022-10-18T19:41:40.294Z,101005.41
2022-10-18T19:44:42.434Z,101016.94
2022-10-18T19:47:44.779Z,101011.31
2022-10-18T19:50:47.725Z,101011.31
2022-10-18T19:53:50.455Z,101010.28
2022-10-18T19:56:52.782Z,100994.44
2022-10-18T19:59:58.406Z,101008.28
2022-10-18T20:03:01.241Z,101006.66
2022-10-18T20:06:03.920Z,101010.75
2022-10-18T20:09:07.526Z,101008.84
2022-10-18T20:12:09.852Z,101005.19
2022-10-18T20:15:12.054Z,100998.97
2022-10-18T20:18:15.120Z,101002.69
2022-10-18T20:21:17.249Z,100996.50
2022-10-18T20:24:19.567Z,100997.97
2022-10-18T20:27:21.662Z,100989.37
2022-10-18T20:30:24.016Z,100980.31
2022-10-18T20:33:26.110Z,100987.94
2022-10-18T20:36:30.045Z,100978.81
2022-10-18T20:39:33.474Z,100987.00
2022-10-18T20:42:35.806Z,100990.41
2022-10-18T20:45:37.866Z,100983.31
2022-10-18T20:48:40.223Z,100980.19
2022-10-18T20:51:42.782Z,100982.63
2022-10-18T20:54:45.130Z,100973.19
2022-10-18T20:57:47.196Z,100978.72
2022-10-18T21:00:49.518Z,100980.03
2022-10-18T21:03:53.561Z,100972.81
2022-10-18T21:06:55.993Z,100970.00
2022-10-18T21:09:58.316Z,100977.44
2022-10-18T21:13:00.692Z,100968.47
2022-10-18T21:16:03.870Z,100960.97
2022-10-18T21:19:09.846Z,100962.16
2022-10-18T21:22:11.977Z,100961.06
2022-10-18T21:25:14.481Z,100959.31
2022-10-18T21:28:17.222Z,100967.72
2022-10-18T21:31:22.398Z,100969.63
2022-10-18T21:34:24.847Z,100960.94
2022-10-18T21:37:27.197Z,100967.94
2022-10-18T21:40:29.412Z,100957.34
2022-10-18T21:43:31.734Z,100954.72
2022-10-18T21:46:33.821Z,100946.06
2022-10-18T21:49:36.215Z,100936.34
2022-10-18T21:52:38.328Z,100942.06
2022-10-18T21:55:40.651Z,100923.22
2022-10-18T21:58:43.618Z,100922.94
2022-10-18T22:01:45.978Z,100922.41
2022-10-18T22:04:49.618Z,100917.00
2022-10-18T22:07:51.683Z,100914.81
2022-10-18T22:10:54.679Z,100914.81
2022-10-18T22:13:57.238Z,100908.19
2022-10-18T22:16:59.589Z,100913.91
2022-10-18T22:20:01.648Z,100916.50
2022-10-18T22:23:03.966Z,100914.81
2022-10-18T22:26:08.993Z,100909.19
2022-10-18T22:29:16.883Z,100906.56
2022-10-18T22:32:18.976Z,100908.97
2022-10-18T22:35:21.436Z,100907.22
2022-10-18T22:38:23.791Z,100905.59
2022-10-18T22:41:26.359Z,100891.97
2022-10-18T22:44:28.505Z,100897.59
2022-10-18T22:47:31.091Z,100887.81
2022-10-18T22:50:33.317Z,100897.66
2022-10-18T22:53:37.305Z,100907.38
2022-10-18T22:56:39.394Z,100898.59
2022-10-18T22:59:41.752Z,100888.16
2022-10-18T23:02:43.914Z,100883.88
2022-10-18T23:05:46.815Z,100899.41
2022-10-18T23:08:49.864Z,100894.69
2022-10-18T23:11:52.934Z,100891.28
2022-10-18T23:14:54.997Z,100893.66
2022-10-18T23:17:58.396Z,100881.75
2022-10-18T23:21:12.038Z,100882.84
2022-10-18T23:24:14.398Z,100870.81
2022-10-18T23:27:16.444Z,100883.53
2022-10-18T23:30:18.909Z,100879.50
2022-10-18T23:33:20.994Z,100869.47
2022-10-18T23:36:23.838Z,100875.59
2022-10-18T23:39:25.890Z,100877.03
2022-10-18T23:42:28.243Z,100888.00
2022-10-18T23:45:30.297Z,100882.50
2022-10-18T23:48:34.090Z,100872.38
2022-10-18T23:51:36.153Z,100862.75
2022-10-18T23:54:38.563Z,100859.53
2022-10-18T23:57:40.759Z,100859.75
